createdAt,value
2017-12-12T00:01:25.708Z,96.64
2017-12-12T00:03:59.578Z,96.59
2017-12-12T00:06:28.633Z,96.76
2017-12-12T00:08:58.843Z,97.04
2017-12-12T00:11:27.863Z,96.76
2017-12-12T00:13:56.984Z,97.06
2017-12-12T00:16:26.187Z,96.98
2017-12-12T00:21:30.450Z,97.02
2017-12-12T00:23:59.470Z,97.06
2017-12-12T00:26:28.526Z,97.10
2017-12-12T00:28:58.623Z,97.28
2017-12-12T00:31:27.666Z,96.99
2017-12-12T00:33:59.721Z,97.24
2017-12-12T00:36:28.771Z,97.54
2017-12-12T00:38:58.729Z,97.55
2017-12-12T00:41:27.753Z,97.29
2017-12-12T00:44:01.224Z,97.36
2017-12-12T00:46:30.260Z,97.44
2017-12-12T00:49:03.227Z,97.57
2017-12-12T00:51:32.257Z,97.68
2017-12-12T00:56:40.174Z,97.29
2017-12-12T00:59:19.086Z,97.12
2017-12-12T01:01:56.050Z,97.41
2017-12-12T01:04:25.065Z,97.41
2017-12-12T01:06:57.822Z,97.56
2017-12-12T01:09:26.912Z,97.23
2017-12-12T01:12:19.468Z,97.17
2017-12-12T01:14:57.658Z,97.21
2017-12-12T01:17:26.688Z,97.13
2017-12-12T01:20:03.634Z,97.08
2017-12-12T01:22:32.789Z,97.19
2017-12-12T01:25:16.009Z,96.89
2017-12-12T01:30:20.073Z,96.73
2017-12-12T01:35:27.187Z,96.57
2017-12-12T01:38:13.990Z,96.68
2017-12-12T01:43:20.209Z,96.87
2017-12-12T01:45:49.414Z,97.09
2017-12-12T01:48:19.362Z,97.08
2017-12-12T01:50:51.886Z,97.15
2017-12-12T01:53:20.912Z,96.92
2017-12-12T01:56:00.714Z,96.93
2017-12-12T02:01:17.822Z,97.20
2017-12-12T02:04:08.749Z,97.12
2017-12-12T02:06:37.781Z,97.22
2017-12-12T02:09:19.742Z,97.20
2017-12-12T02:11:48.825Z,97.41
2017-12-12T02:14:17.894Z,97.13
2017-12-12T02:16:54.605Z,96.75
2017-12-12T02:19:23.639Z,96.42
2017-12-12T02:22:01.402Z,96.52
2017-12-12T02:24:30.444Z,96.05
2017-12-12T02:27:08.103Z,95.91
2017-12-12T02:29:37.125Z,95.76
2017-12-12T02:32:13.986Z,95.94
2017-12-12T02:34:45.001Z,95.83
2017-12-12T02:40:07.305Z,95.79
2017-12-12T02:42:36.350Z,95.52
2017-12-12T02:45:08.995Z,95.43
2017-12-12T02:47:38.118Z,95.80
2017-12-12T02:50:08.075Z,95.94
2017-12-12T02:52:37.101Z,95.55
2017-12-12T02:55:06.128Z,95.73
2017-12-12T02:57:35.178Z,95.11
2017-12-12T03:02:49.422Z,95.28
2017-12-12T03:08:00.791Z,95.18
2017-12-12T03:10:29.818Z,94.78
2017-12-12T03:15:34.094Z,95.03
2017-12-12T03:18:03.120Z,94.80
2017-12-12T03:20:32.183Z,94.90
2017-12-12T03:23:19.414Z,94.30
2017-12-12T03:25:48.493Z,94.50
2017-12-12T03:28:19.422Z,94.15
2017-12-12T03:30:50.470Z,93.62
2017-12-12T03:33:19.501Z,94.57
2017-12-12T03:36:19.478Z,94.28
2017-12-12T03:39:03.685Z,94.04
2017-12-12T03:41:32.721Z,94.73
2017-12-12T03:44:03.741Z,94.35
2017-12-12T03:46:32.789Z,93.77
2017-12-12T03:49:16.946Z,93.46
2017-12-12T03:52:05.113Z,93.58
2017-12-12T03:54:34.142Z,93.21
2017-12-12T03:57:04.127Z,92.95
2017-12-12T03:59:33.149Z,93.24
2017-12-12T04:02:16.219Z,93.48
2017-12-12T04:05:11.986Z,93.20
2017-12-12T04:07:41.906Z,92.37
2017-12-12T04:10:11.910Z,92.53
2017-12-12T04:12:40.998Z,92.32
2017-12-12T04:15:10.019Z,92.09
2017-12-12T04:17:39.049Z,92.56
2017-12-12T04:20:11.565Z,92.71
2017-12-12T04:22:40.643Z,92.46
2017-12-12T04:25:09.683Z,92.75
2017-12-12T04:27:38.722Z,92.26
2017-12-12T04:32:55.786Z,91.87
2017-12-12T04:35:24.822Z,91.47
2017-12-12T04:37:58.493Z,91.04
2017-12-12T04:40:27.525Z,90.47
2017-12-12T04:43:01.119Z,90.44
2017-12-12T04:45:30.138Z,89.41
2017-12-12T04:50:34.374Z,89.38
2017-12-12T04:53:09.190Z,89.12
2017-12-12T04:55:38.226Z,89.12
2017-12-12T04:58:07.259Z,89.21
2017-12-12T05:00:37.215Z,88.85
2017-12-12T05:03:06.295Z,89.58
2017-12-12T05:05:35.314Z,89.09
2017-12-12T05:08:04.336Z,89.39
2017-12-12T05:10:33.370Z,90.16
2017-12-12T05:15:37.645Z,88.14
2017-12-12T05:18:07.700Z,87.71
2017-12-12T05:20:36.770Z,84.58
2017-12-12T05:23:07.782Z,81.03
2017-12-12T05:25:36.845Z,80.60
2017-12-12T05:28:06.800Z,80.90
2017-12-12T05:30:35.857Z,80.08
2017-12-12T05:33:14.729Z,80.36
2017-12-12T05:35:44.066Z,80.53
2017-12-12T05:38:13.105Z,80.79
2017-12-12T05:40:50.001Z,81.86
2017-12-12T05:45:54.361Z,81.19
2017-12-12T05:48:23.378Z,79.28
2017-12-12T05:50:53.386Z,78.82
2017-12-12T05:53:22.441Z,77.73
2017-12-12T05:55:52.486Z,76.59
2017-12-12T05:58:21.538Z,76.80
2017-12-12T06:00:50.575Z,74.19
2017-12-12T06:03:19.610Z,75.72
2017-12-12T06:05:52.978Z,75.52
2017-12-12T06:08:22.004Z,75.13
2017-12-12T06:10:51.032Z,75.11
2017-12-12T06:13:20.623Z,75.36
2017-12-12T06:15:53.141Z,76.25
2017-12-12T06:18:22.497Z,76.59
2017-12-12T06:20:56.605Z,76.44
2017-12-12T06:23:25.674Z,76.84
2017-12-12T06:25:54.718Z,77.20
2017-12-12T06:28:23.756Z,77.48
2017-12-12T06:31:00.235Z,77.15
2017-12-12T06:33:29.265Z,77.33
2017-12-12T06:36:00.279Z,77.47
2017-12-12T06:38:29.314Z,77.27
2017-12-12T06:43:36.528Z,77.35
2017-12-12T06:46:18.529Z,77.30
2017-12-12T06:48:54.971Z,77.92
2017-12-12T06:51:24.005Z,78.82
2017-12-12T06:53:53.072Z,78.47
2017-12-12T06:56:22.106Z,78.56
2017-12-12T06:58:54.515Z,78.75
2017-12-12T07:01:24.498Z,78.21
2017-12-12T07:03:53.542Z,79.04
2017-12-12T07:06:22.573Z,78.92
2017-12-12T07:08:52.544Z,79.58
2017-12-12T07:11:21.605Z,78.65
2017-12-12T07:13:54.457Z,78.50
2017-12-12T07:16:23.474Z,78.84
2017-12-12T07:21:31.162Z,78.07
2017-12-12T07:24:03.571Z,77.95
2017-12-12T07:26:33.531Z,78.05
2017-12-12T07:29:03.602Z,78.17
2017-12-12T07:31:32.637Z,78.92
2017-12-12T07:34:03.646Z,78.46
2017-12-12T07:36:32.753Z,78.49
2017-12-12T07:39:03.815Z,77.73
2017-12-12T07:41:33.823Z,77.83
2017-12-12T07:44:02.859Z,77.77
2017-12-12T07:46:31.925Z,77.45
2017-12-12T07:49:01.928Z,77.83
2017-12-12T07:51:30.980Z,77.43
2017-12-12T07:54:00.117Z,77.01
2017-12-12T07:56:32.895Z,76.93
2017-12-12T07:59:02.821Z,76.87
2017-12-12T08:01:37.014Z,77.69
2017-12-12T08:04:06.374Z,77.32
2017-12-12T08:09:11.605Z,77.02
2017-12-12T08:11:43.689Z,77.35
2017-12-12T08:14:13.814Z,76.90
2017-12-12T08:16:46.199Z,76.81
2017-12-12T08:19:18.653Z,76.94
2017-12-12T08:22:03.260Z,76.18
2017-12-12T08:24:33.263Z,76.67
2017-12-12T08:27:03.186Z,75.94
2017-12-12T08:29:32.232Z,75.91
2017-12-12T08:32:03.168Z,75.93
2017-12-12T08:37:12.363Z,76.07
2017-12-12T08:39:41.393Z,75.98
2017-12-12T08:42:10.438Z,75.92
2017-12-12T08:44:39.562Z,76.35
2017-12-12T08:47:08.586Z,76.24
2017-12-12T08:52:14.796Z,76.41
2017-12-12T08:57:20.000Z,76.77
2017-12-12T09:02:49.693Z,75.79
2017-12-12T09:05:18.728Z,75.22
2017-12-12T09:07:49.658Z,75.78
2017-12-12T09:10:18.724Z,75.00
2017-12-12T09:13:04.784Z,74.71
2017-12-12T09:18:30.910Z,74.28
2017-12-12T09:21:00.870Z,74.84
2017-12-12T09:23:59.281Z,75.21
2017-12-12T09:26:49.769Z,75.16
2017-12-12T09:29:19.698Z,75.54
2017-12-12T09:31:54.237Z,76.27
2017-12-12T09:37:03.598Z,75.35
2017-12-12T09:39:36.522Z,74.87
2017-12-12T09:42:05.670Z,74.52
2017-12-12T09:44:34.705Z,74.88
2017-12-12T09:47:03.743Z,76.00
2017-12-12T09:49:40.998Z,74.61
2017-12-12T09:52:10.085Z,75.08
2017-12-12T09:57:15.266Z,73.94
2017-12-12T09:59:45.241Z,74.40
2017-12-12T10:02:15.169Z,74.59
2017-12-12T10:04:44.943Z,73.92
2017-12-12T10:07:13.968Z,72.74
2017-12-12T10:09:43.005Z,71.76
2017-12-12T10:12:12.070Z,73.18
2017-12-12T10:14:45.862Z,72.88
2017-12-12T10:17:15.816Z,74.03
2017-12-12T10:19:52.598Z,74.12
2017-12-12T10:22:21.639Z,73.97
2017-12-12T10:25:03.293Z,73.00
2017-12-12T10:27:40.121Z,74.33
2017-12-12T10:30:09.156Z,74.05
2017-12-12T10:32:45.913Z,71.87
2017-12-12T10:35:14.962Z,71.33
2017-12-12T10:37:52.413Z,70.77
2017-12-12T10:40:22.344Z,70.34
2017-12-12T10:42:51.374Z,69.04
2017-12-12T10:45:20.419Z,70.37
2017-12-12T10:47:51.359Z,71.28
2017-12-12T10:50:20.386Z,69.29
2017-12-12T10:52:56.499Z,69.44
2017-12-12T10:55:39.085Z,71.64
2017-12-12T10:58:08.129Z,70.97
2017-12-12T11:00:56.014Z,69.55
2017-12-12T11:03:49.178Z,69.12
2017-12-12T11:06:18.209Z,70.27
2017-12-12T11:08:47.243Z,70.78
2017-12-12T11:11:16.284Z,71.27
2017-12-12T11:16:21.490Z,71.45
2017-12-12T11:19:04.713Z,71.66
2017-12-12T11:21:43.077Z,70.71
2017-12-12T11:24:12.113Z,71.42
2017-12-12T11:26:52.863Z,70.57
2017-12-12T11:29:21.879Z,70.88
2017-12-12T11:32:04.259Z,72.93
2017-12-12T11:34:36.436Z,71.20
2017-12-12T11:37:06.141Z,71.73
2017-12-12T11:39:58.261Z,72.48
2017-12-12T11:42:31.229Z,71.84
2017-12-12T11:48:03.090Z,70.53
2017-12-12T11:53:20.785Z,71.65
2017-12-12T11:56:02.886Z,73.41
2017-12-12T11:58:37.181Z,73.91
2017-12-12T12:01:06.211Z,74.65
2017-12-12T12:06:48.211Z,75.21
2017-12-12T12:09:18.187Z,75.93
2017-12-12T12:11:52.297Z,76.07
2017-12-12T12:14:21.331Z,76.89
2017-12-12T12:19:37.522Z,78.43
2017-12-12T12:22:07.478Z,78.44
2017-12-12T12:24:36.561Z,78.57
2017-12-12T12:27:05.596Z,79.52
2017-12-12T12:29:34.629Z,80.28
2017-12-12T12:32:03.673Z,80.74
2017-12-12T12:37:08.733Z,80.03
2017-12-12T12:39:47.750Z,80.56
2017-12-12T12:42:16.806Z,80.21
2017-12-12T12:44:49.451Z,80.29
2017-12-12T12:47:18.486Z,81.61
2017-12-12T12:52:26.709Z,82.01
2017-12-12T12:54:57.188Z,81.71
2017-12-12T12:57:26.305Z,82.08
2017-12-12T12:59:55.883Z,83.38
2017-12-12T13:02:26.863Z,83.59
2017-12-12T13:04:57.633Z,83.40
2017-12-12T13:07:26.682Z,83.34
2017-12-12T13:09:56.710Z,82.68
2017-12-12T13:12:25.718Z,83.06
2017-12-12T13:14:58.997Z,82.82
2017-12-12T13:17:35.783Z,82.02
2017-12-12T13:20:04.822Z,82.32
2017-12-12T13:22:35.751Z,83.79
2017-12-12T13:25:04.826Z,83.32
2017-12-12T13:27:33.866Z,82.18
2017-12-12T13:30:02.911Z,82.01
2017-12-12T13:32:31.948Z,82.43
2017-12-12T13:35:00.974Z,82.39
2017-12-12T13:37:48.854Z,82.86
2017-12-12T13:40:17.886Z,83.05
2017-12-12T13:43:03.788Z,83.60
2017-12-12T13:45:36.096Z,84.78
2017-12-12T13:48:05.131Z,85.23
2017-12-12T13:50:56.759Z,86.76
2017-12-12T13:53:28.967Z,88.05
2017-12-12T13:55:58.786Z,89.23
2017-12-12T13:59:02.735Z,89.77
2017-12-12T14:04:18.949Z,90.42
2017-12-12T14:06:51.717Z,91.07
2017-12-12T14:09:20.759Z,92.02
2017-12-12T14:11:51.726Z,92.17
2017-12-12T14:14:20.770Z,91.54
2017-12-12T14:16:49.819Z,91.94
2017-12-12T14:19:18.846Z,92.83
2017-12-12T14:21:55.271Z,92.72
2017-12-12T14:27:03.454Z,93.06
2017-12-12T14:29:32.489Z,93.65
2017-12-12T14:32:03.462Z,93.76
2017-12-12T14:34:32.490Z,93.86
2017-12-12T14:37:03.494Z,93.85
2017-12-12T14:39:50.723Z,93.89
2017-12-12T14:42:20.644Z,94.57
2017-12-12T14:44:59.384Z,94.63
2017-12-12T14:47:36.456Z,94.63
2017-12-12T14:50:05.528Z,94.51
2017-12-12T14:52:34.553Z,94.54
2017-12-12T14:55:03.593Z,94.58
2017-12-12T14:57:32.661Z,94.88
2017-12-12T15:00:01.931Z,94.81
2017-12-12T15:02:30.998Z,94.81
2017-12-12T15:05:00.680Z,94.46
2017-12-12T15:07:29.690Z,94.66
2017-12-12T15:09:59.176Z,94.45
2017-12-12T15:12:28.209Z,94.55
2017-12-12T15:18:02.084Z,94.18
2017-12-12T15:23:09.349Z,93.39
2017-12-12T15:28:22.562Z,93.16
2017-12-12T15:30:59.004Z,93.04
2017-12-12T15:36:06.226Z,92.40
2017-12-12T15:38:35.320Z,92.99
2017-12-12T15:41:04.380Z,92.97
2017-12-12T15:46:13.605Z,92.68
2017-12-12T15:49:04.433Z,92.58
2017-12-12T15:52:02.223Z,91.85
2017-12-12T15:54:33.252Z,91.36
2017-12-12T15:57:03.201Z,91.32
2017-12-12T15:59:54.153Z,90.74
2017-12-12T16:02:37.383Z,90.77
2017-12-12T16:05:06.684Z,91.11
2017-12-12T16:07:39.476Z,91.37
2017-12-12T16:10:08.830Z,91.26
2017-12-12T16:15:38.144Z,91.47
2017-12-12T16:18:07.192Z,91.51
2017-12-12T16:20:36.250Z,91.77
2017-12-12T16:23:06.666Z,91.79
2017-12-12T16:25:41.677Z,91.81
2017-12-12T16:28:10.723Z,91.36
2017-12-12T16:30:49.368Z,90.49
2017-12-12T16:33:19.320Z,90.54
2017-12-12T16:35:48.345Z,90.36
2017-12-12T16:38:17.408Z,90.21
2017-12-12T16:40:47.538Z,90.04
2017-12-12T16:43:16.923Z,89.97
2017-12-12T16:45:49.961Z,90.10
2017-12-12T16:48:19.003Z,90.15
2017-12-12T16:51:03.288Z,90.02
2017-12-12T16:53:33.230Z,90.38
2017-12-12T16:56:03.198Z,90.42
2017-12-12T16:58:39.425Z,90.68
2017-12-12T17:01:09.418Z,90.21
2017-12-12T17:03:48.949Z,89.90
2017-12-12T17:06:21.449Z,90.77
2017-12-12T17:08:50.512Z,89.98
2017-12-12T17:11:19.541Z,89.45
2017-12-12T17:13:57.056Z,89.30
2017-12-12T17:17:02.742Z,88.99
2017-12-12T17:19:32.012Z,88.79
2017-12-12T17:22:03.134Z,88.94
2017-12-12T17:24:32.246Z,88.99
2017-12-12T17:27:03.227Z,88.66
2017-12-12T17:32:09.691Z,88.85
2017-12-12T17:34:38.723Z,88.57
2017-12-12T17:37:07.746Z,89.12
2017-12-12T17:39:39.909Z,88.97
2017-12-12T17:42:08.905Z,88.46
2017-12-12T17:45:02.067Z,88.30
2017-12-12T17:47:43.713Z,88.92
2017-12-12T17:50:13.191Z,89.11
2017-12-12T17:55:54.506Z,89.55
2017-12-12T18:01:03.196Z,90.26
2017-12-12T18:03:32.232Z,90.34
2017-12-12T18:06:05.159Z,90.53
2017-12-12T18:11:16.154Z,89.75
2017-12-12T18:13:45.201Z,89.99
2017-12-12T18:16:14.236Z,90.12
2017-12-12T18:18:52.678Z,89.30
2017-12-12T18:21:23.911Z,88.90
2017-12-12T18:23:58.694Z,89.05
2017-12-12T18:26:27.787Z,88.65
2017-12-12T18:29:02.535Z,89.04
2017-12-12T18:31:34.686Z,88.56
2017-12-12T18:34:03.854Z,88.54
2017-12-12T18:36:36.174Z,88.39
2017-12-12T18:39:05.216Z,88.51
2017-12-12T18:41:34.252Z,88.45
2017-12-12T18:44:03.314Z,89.04
2017-12-12T18:46:49.306Z,89.44
2017-12-12T18:49:25.446Z,89.46
2017-12-12T18:51:55.026Z,89.24
2017-12-12T18:54:26.456Z,89.61
2017-12-12T18:56:55.603Z,89.92
2017-12-12T18:59:29.726Z,90.23
2017-12-12T19:01:58.936Z,90.09
2017-12-12T19:07:07.282Z,90.38
2017-12-12T19:09:38.434Z,90.47
2017-12-12T19:12:07.715Z,90.33
2017-12-12T19:14:49.102Z,89.98
2017-12-12T19:20:05.730Z,89.69
2017-12-12T19:22:34.864Z,89.77
2017-12-12T19:25:04.246Z,89.84
2017-12-12T19:32:48.581Z,88.52
2017-12-12T19:35:26.684Z,88.13
2017-12-12T19:37:56.276Z,87.71
2017-12-12T19:43:04.555Z,86.70
2017-12-12T19:45:48.440Z,86.34
2017-12-12T19:51:01.655Z,86.80
2017-12-12T19:56:32.114Z,86.46
2017-12-12T19:59:01.278Z,86.36
2017-12-12T20:01:30.897Z,86.75
2017-12-12T20:04:00.074Z,86.44
2017-12-12T20:06:37.603Z,86.45
2017-12-12T20:09:06.721Z,86.55
2017-12-12T20:11:49.045Z,86.00
2017-12-12T20:14:34.362Z,86.13
2017-12-12T20:17:10.480Z,86.60
2017-12-12T20:19:41.262Z,86.78
2017-12-12T20:22:10.956Z,86.51
2017-12-12T20:24:40.133Z,86.52
2017-12-12T20:27:11.158Z,86.30
2017-12-12T20:29:42.274Z,86.43
2017-12-12T20:32:11.979Z,86.70
2017-12-12T20:34:40.991Z,86.81
2017-12-12T20:37:10.239Z,87.00
2017-12-12T20:39:39.360Z,86.46
2017-12-12T20:42:08.407Z,86.47
2017-12-12T20:44:37.513Z,86.02
2017-12-12T20:47:06.561Z,85.53
2017-12-12T20:49:35.640Z,85.81
2017-12-12T20:52:04.662Z,86.06
2017-12-12T20:54:33.878Z,86.51
2017-12-12T20:59:39.459Z,86.80
2017-12-12T21:02:08.489Z,86.87
2017-12-12T21:04:38.384Z,87.19
2017-12-12T21:07:26.204Z,88.00
2017-12-12T21:09:55.241Z,88.20
2017-12-12T21:12:27.909Z,88.02
2017-12-12T21:14:58.018Z,87.65
2017-12-12T21:17:27.898Z,87.73
2017-12-12T21:20:01.958Z,87.74
2017-12-12T21:22:35.723Z,87.84
2017-12-12T21:27:40.034Z,87.42
2017-12-12T21:30:09.123Z,87.43
2017-12-12T21:32:38.577Z,88.31
2017-12-12T21:35:07.613Z,88.29
2017-12-12T21:37:36.658Z,88.34
2017-12-12T21:42:40.994Z,88.02
2017-12-12T21:45:10.038Z,87.88
2017-12-12T21:47:39.132Z,87.38
2017-12-12T21:50:08.135Z,86.99
2017-12-12T21:52:37.217Z,87.42
2017-12-12T21:58:00.353Z,87.12
2017-12-12T22:00:29.357Z,87.36
2017-12-12T22:03:01.593Z,87.21
2017-12-12T22:05:30.633Z,87.15
2017-12-12T22:07:59.692Z,87.12
2017-12-12T22:10:29.647Z,86.38
2017-12-12T22:13:01.971Z,86.08
2017-12-12T22:15:31.002Z,86.44
2017-12-12T22:20:35.256Z,86.72
2017-12-12T22:25:51.479Z,86.99
2017-12-12T22:31:03.331Z,86.36
2017-12-12T22:33:32.382Z,86.49
2017-12-12T22:36:09.648Z,86.29
2017-12-12T22:38:38.700Z,85.92
2017-12-12T22:41:07.781Z,85.76
2017-12-12T22:43:36.929Z,85.93
2017-12-12T22:46:06.938Z,86.10
2017-12-12T22:53:50.282Z,87.24
2017-12-12T22:56:19.331Z,88.38
2017-12-12T22:58:49.452Z,89.10
2017-12-12T23:01:19.429Z,89.76
2017-12-12T23:03:48.534Z,89.71
2017-12-12T23:06:21.625Z,88.46
2017-12-12T23:08:50.679Z,87.74
2017-12-12T23:11:19.734Z,87.78
2017-12-12T23:13:50.750Z,87.29
2017-12-12T23:16:19.802Z,87.14
2017-12-12T23:18:50.723Z,86.82
2017-12-12T23:21:27.452Z,86.69
2017-12-12T23:23:56.631Z,87.23
2017-12-12T23:26:25.673Z,87.56
2017-12-12T23:28:54.722Z,87.80
2017-12-12T23:31:23.778Z,88.44
2017-12-12T23:33:53.777Z,88.80
2017-12-12T23:36:22.826Z,88.24
2017-12-12T23:38:53.009Z,87.76
2017-12-12T23:45:38.538Z,86.72
2017-12-12T23:48:07.554Z,86.87
2017-12-12T23:50:36.762Z,87.14
2017-12-12T23:53:06.742Z,87.33
2017-12-12T23:55:35.786Z,87.37
2017-12-12T23:58:04.896Z,87.31
